Time;durP1;ratioP1;P1;durP2;ratioP2;P2;SDS_P1;SDS_P2;PMS_P1;PMS_P2;Temp;Humidity;BMP_temperature;BMP_pressure;BME280_temperature;BME280_humidity;BME280_pressure;Samples;Min_cycle;Max_cycle;Signal;HPM_P1;HPM_P2
2022/04/09 00:01:04;;;;;;;;;;;4.90;90.50;;;;;;2091985;28;19921;-93
2022/04/09 00:02:24;;;;;;;;;;;4.90;90.50;;;;;;2097315;28;19984;-95
2022/04/09 00:03:43;;;;;;;;;;;4.90;90.50;;;;;;2094414;28;19913;-94
2022/04/09 00:05:02;;;;;;;;;;;4.90;90.50;;;;;;2105324;28;19904;-95
2022/04/09 00:06:21;;;;;;;;;;;4.90;90.40;;;;;;2085179;28;19917;-93
2022/04/09 00:07:41;;;;;;;;;;;4.90;90.50;;;;;;2090937;28;19912;-93
2022/04/09 00:09:00;;;;;;;;;;;4.90;90.50;;;;;;2094781;28;20291;-93
2022/04/09 00:10:19;;;;;;;;;;;4.90;90.50;;;;;;2091376;28;19917;-95
2022/04/09 00:11:39;;;;;;;;;;;4.90;90.50;;;;;;2097773;28;19913;-95
2022/04/09 00:12:58;;;;;;;;;;;4.90;90.40;;;;;;2099734;28;19913;-95
2022/04/09 00:14:18;;;;;;;;;;;4.90;90.40;;;;;;2091209;28;19909;-94
2022/04/09 00:15:37;;;;;;;;;;;4.90;90.40;;;;;;2082329;28;20363;-95
2022/04/09 00:16:56;;;;;;;;;;;4.90;90.40;;;;;;2087927;28;20007;-94
2022/04/09 00:18:16;;;;;;;;;;;4.90;90.50;;;;;;2096275;28;20374;-93
2022/04/09 00:19:35;;;;;;;;;;;4.90;90.40;;;;;;2098641;28;19917;-94
2022/04/09 00:20:55;;;;;;;;;;;4.90;90.50;;;;;;2090750;28;20349;-93
2022/04/09 00:22:15;;;;;;;;;;;4.90;90.50;;;;;;2082346;28;19913;-94
2022/04/09 00:23:34;;;;;;;;;;;4.90;90.50;;;;;;2079022;28;20379;-93
2022/04/09 00:24:53;;;;;;;;;;;4.80;90.50;;;;;;2086686;28;20384;-94
2022/04/09 00:26:12;;;;;;;;;;;4.80;90.50;;;;;;2093926;28;19960;-96
2022/04/09 00:27:31;;;;;;;;;;;4.80;90.50;;;;;;2084046;28;19913;-94
2022/04/09 00:28:51;;;;;;;;;;;4.90;90.50;;;;;;2083736;28;19917;-95
2022/04/09 00:30:10;;;;;;;;;;;4.80;90.50;;;;;;2087123;28;19916;-95
2022/04/09 00:31:29;;;;;;;;;;;4.80;90.50;;;;;;2090768;28;20000;-95
2022/04/09 00:32:48;;;;;;;;;;;4.80;90.50;;;;;;2091076;28;20286;-96
2022/04/09 00:34:08;;;;;;;;;;;4.80;90.50;;;;;;2091456;28;19913;-95
2022/04/09 00:35:27;;;;;;;;;;;4.80;90.50;;;;;;2095440;28;19975;-94
2022/04/09 00:36:46;;;;;;;;;;;4.80;90.50;;;;;;2092525;28;19916;-94
2022/04/09 00:38:05;;;;;;;;;;;4.80;90.60;;;;;;2091570;28;20003;-96
2022/04/09 00:39:24;;;;;;;;;;;4.80;90.60;;;;;;2093830;28;20372;-95
2022/04/09 00:40:44;;;;;;;;;;;4.80;90.60;;;;;;2104974;28;19908;-88
2022/04/09 00:42:03;;;;;;;;;;;4.80;90.60;;;;;;2104733;28;19901;-93
2022/04/09 00:43:22;;;;;;;;;;;4.80;90.60;;;;;;2106380;28;19976;-92
2022/04/09 00:44:42;;;;;;;;;;;4.80;90.60;;;;;;2108086;28;19904;-92
2022/04/09 00:46:01;;;;;;;;;;;4.80;90.60;;;;;;2100800;28;19913;-93
2022/04/09 00:47:20;;;;;;;;;;;4.80;90.60;;;;;;2091164;28;20433;-95
2022/04/09 00:48:41;;;;;;;;;;;4.80;90.60;;;;;;2090665;28;19913;-95
2022/04/09 00:50:01;;;;;;;;;;;4.80;90.60;;;;;;2090988;28;19920;-94
2022/04/09 00:51:20;;;;;;;;;;;4.80;90.60;;;;;;2091590;28;19915;-95
2022/04/09 00:52:42;;;;;;;;;;;4.80;90.60;;;;;;2090728;28;19976;-94
2022/04/09 00:54:03;;;;;;;;;;;4.80;90.60;;;;;;2100575;28;20026;-94
2022/04/09 00:57:04;;;;;;;;;;;4.70;90.60;;;;;;2107153;28;19905;-84
2022/04/09 00:58:24;;;;;;;;;;;4.70;90.60;;;;;;2107043;28;19901;-82
2022/04/09 00:59:45;;;;;;;;;;;4.70;90.60;;;;;;2107555;28;19980;-94
2022/04/09 01:01:05;;;;;;;;;;;4.70;90.60;;;;;;2105821;28;19908;-84
2022/04/09 01:02:24;;;;;;;;;;;4.70;90.60;;;;;;2106737;28;19900;-87
2022/04/09 01:03:44;;;;;;;;;;;4.70;90.60;;;;;;2101358;28;19901;-94
2022/04/09 01:05:05;;;;;;;;;;;4.70;90.70;;;;;;2099091;28;19916;-94
2022/04/09 01:06:24;;;;;;;;;;;4.70;90.70;;;;;;2110084;28;19916;-94
2022/04/09 01:07:44;;;;;;;;;;;4.70;90.70;;;;;;2101656;28;19913;-94
2022/04/09 01:09:04;;;;;;;;;;;4.70;90.70;;;;;;2100029;28;19916;-93
2022/04/09 01:10:23;;;;;;;;;;;4.70;90.70;;;;;;2102621;28;19905;-86
2022/04/09 01:11:42;;;;;;;;;;;4.70;90.70;;;;;;2102290;28;19901;-93
2022/04/09 01:13:01;;;;;;;;;;;4.60;90.70;;;;;;2092512;28;19917;-93
2022/04/09 01:14:20;;;;;;;;;;;4.60;90.70;;;;;;2092149;28;19948;-94
2022/04/09 01:15:40;;;;;;;;;;;4.70;90.70;;;;;;2092448;28;19921;-93
2022/04/09 01:16:59;;;;;;;;;;;4.60;90.70;;;;;;2094075;28;20271;-93
2022/04/09 01:18:18;;;;;;;;;;;4.60;90.70;;;;;;2091447;28;20351;-93
2022/04/09 01:19:37;;;;;;;;;;;4.60;90.80;;;;;;2092367;28;20003;-94
2022/04/09 01:20:57;;;;;;;;;;;4.60;90.80;;;;;;2092254;28;19929;-93
2022/04/09 01:22:17;;;;;;;;;;;4.60;90.80;;;;;;2094209;28;19976;-93
2022/04/09 01:23:36;;;;;;;;;;;4.60;90.80;;;;;;2091289;28;19955;-93
2022/04/09 01:24:55;;;;;;;;;;;4.60;90.80;;;;;;2091468;28;19929;-94
2022/04/09 01:26:15;;;;;;;;;;;4.60;90.80;;;;;;2092181;28;19913;-93
2022/04/09 01:27:34;;;;;;;;;;;4.60;90.80;;;;;;2085912;28;19920;-93
2022/04/09 01:28:53;;;;;;;;;;;4.50;90.80;;;;;;2095146;28;19920;-92
2022/04/09 01:30:13;;;;;;;;;;;4.60;90.80;;;;;;2100025;28;20382;-93
2022/04/09 01:31:32;;;;;;;;;;;4.50;90.80;;;;;;2100222;28;19912;-92
2022/04/09 01:32:51;;;;;;;;;;;4.60;90.80;;;;;;2099671;28;19913;-92
2022/04/09 01:34:13;;;;;;;;;;;4.60;90.80;;;;;;2095094;28;19984;-92
2022/04/09 01:35:32;;;;;;;;;;;4.50;90.80;;;;;;2092169;28;19917;-93
2022/04/09 01:36:51;;;;;;;;;;;4.50;90.80;;;;;;2091877;28;19909;-93
2022/04/09 01:38:11;;;;;;;;;;;4.50;90.80;;;;;;2091511;28;20314;-93
2022/04/09 01:39:30;;;;;;;;;;;4.50;90.80;;;;;;2087326;28;19917;-93
2022/04/09 01:40:49;;;;;;;;;;;4.50;90.80;;;;;;2095519;28;20011;-92
2022/04/09 01:42:10;;;;;;;;;;;4.50;90.80;;;;;;2100527;28;19908;-93
2022/04/09 01:43:29;;;;;;;;;;;4.50;90.80;;;;;;2100566;28;19912;-93
2022/04/09 01:44:48;;;;;;;;;;;4.50;90.90;;;;;;2093279;28;19916;-93
2022/04/09 01:46:07;;;;;;;;;;;4.50;90.90;;;;;;2091495;28;19925;-93
2022/04/09 01:47:26;;;;;;;;;;;4.50;90.90;;;;;;2101328;28;19964;-94
2022/04/09 01:48:46;;;;;;;;;;;4.40;90.90;;;;;;2095541;28;20283;-96
2022/04/09 01:50:05;;;;;;;;;;;4.40;90.80;;;;;;2095861;28;19924;-95
2022/04/09 01:51:24;;;;;;;;;;;4.40;90.90;;;;;;2093388;28;20012;-94
2022/04/09 01:52:43;;;;;;;;;;;4.50;90.90;;;;;;2091479;28;19913;-94
2022/04/09 01:54:03;;;;;;;;;;;4.40;90.90;;;;;;2088412;28;20363;-94
2022/04/09 01:55:22;;;;;;;;;;;4.40;90.90;;;;;;2092154;28;20003;-93
2022/04/09 01:56:41;;;;;;;;;;;4.40;90.90;;;;;;2095638;28;19912;-94
2022/04/09 01:58:00;;;;;;;;;;;4.40;90.90;;;;;;2095955;28;19920;-95
2022/04/09 01:59:20;;;;;;;;;;;4.40;90.90;;;;;;2096234;28;19966;-94
2022/04/09 02:00:39;;;;;;;;;;;4.40;90.90;;;;;;2095777;28;19929;-94
2022/04/09 02:01:58;;;;;;;;;;;4.40;90.90;;;;;;2094718;28;19924;-94
2022/04/09 02:03:17;;;;;;;;;;;4.40;90.90;;;;;;2080975;28;19956;-93
2022/04/09 02:04:36;;;;;;;;;;;4.50;90.90;;;;;;2088937;28;19916;-94
2022/04/09 02:05:56;;;;;;;;;;;4.50;90.90;;;;;;2097123;28;19948;-92
2022/04/09 02:07:17;;;;;;;;;;;4.40;90.90;;;;;;2091763;28;19913;-94
2022/04/09 02:08:36;;;;;;;;;;;4.40;90.80;;;;;;2092297;28;19913;-92
2022/04/09 02:09:55;;;;;;;;;;;4.50;90.80;;;;;;2098147;28;19920;-94
2022/04/09 02:11:15;;;;;;;;;;;4.50;90.80;;;;;;2093752;28;19913;-94
2022/04/09 02:12:34;;;;;;;;;;;4.50;90.80;;;;;;2083862;28;20349;-93
2022/04/09 02:13:54;;;;;;;;;;;4.50;90.90;;;;;;2097305;28;19915;-94
2022/04/09 02:15:16;;;;;;;;;;;4.50;90.80;;;;;;2098410;28;19917;-94
2022/04/09 02:16:35;;;;;;;;;;;4.50;90.80;;;;;;2099267;28;20305;-93
2022/04/09 02:17:54;;;;;;;;;;;4.50;90.80;;;;;;2100357;28;20343;-92
2022/04/09 02:19:14;;;;;;;;;;;4.50;90.80;;;;;;2091610;28;19948;-93
2022/04/09 02:20:35;;;;;;;;;;;4.50;90.80;;;;;;2079833;28;19925;-94
2022/04/09 02:21:53;;;;;;;;;;;4.50;90.80;;;;;;2076999;28;20003;-93
2022/04/09 02:23:13;;;;;;;;;;;4.50;90.80;;;;;;2089503;28;19992;-93
2022/04/09 02:24:32;;;;;;;;;;;4.60;90.80;;;;;;2094521;28;19925;-93
2022/04/09 02:25:51;;;;;;;;;;;4.60;90.80;;;;;;2081138;28;19921;-94
2022/04/09 02:27:11;;;;;;;;;;;4.60;90.70;;;;;;2076595;28;20375;-93
2022/04/09 02:28:32;;;;;;;;;;;4.60;90.70;;;;;;2089106;28;19913;-94
2022/04/09 02:29:51;;;;;;;;;;;4.60;90.70;;;;;;2082993;28;20007;-93
2022/04/09 02:31:11;;;;;;;;;;;4.70;90.70;;;;;;2088076;28;19913;-94
2022/04/09 02:32:30;;;;;;;;;;;4.70;90.70;;;;;;2087976;28;19917;-94
2022/04/09 02:33:49;;;;;;;;;;;4.70;90.70;;;;;;2094802;28;20335;-93
2022/04/09 02:35:09;;;;;;;;;;;4.70;90.70;;;;;;2092398;28;19948;-94
2022/04/09 02:36:29;;;;;;;;;;;4.70;90.70;;;;;;2099676;28;19984;-95
2022/04/09 02:37:48;;;;;;;;;;;4.70;90.80;;;;;;2092261;28;20003;-94
2022/04/09 02:39:08;;;;;;;;;;;4.70;90.80;;;;;;2094711;28;19975;-92
2022/04/09 02:40:28;;;;;;;;;;;4.70;90.80;;;;;;2108100;28;20371;-94
2022/04/09 02:41:48;;;;;;;;;;;4.70;90.90;;;;;;2102238;28;19916;-93
2022/04/09 02:43:09;;;;;;;;;;;4.70;90.90;;;;;;2091990;28;19921;-94
2022/04/09 02:44:29;;;;;;;;;;;4.70;90.80;;;;;;2092237;28;19913;-93
2022/04/09 02:45:48;;;;;;;;;;;4.70;90.80;;;;;;2094344;28;19916;-93
2022/04/09 02:47:07;;;;;;;;;;;4.70;90.90;;;;;;2096399;28;19921;-93
2022/04/09 02:48:27;;;;;;;;;;;4.70;90.90;;;;;;2089096;28;20391;-94
2022/04/09 02:49:46;;;;;;;;;;;4.70;90.80;;;;;;2095907;28;19917;-84
2022/04/09 02:51:06;;;;;;;;;;;4.70;90.90;;;;;;2093188;28;19925;-89
2022/04/09 02:52:27;;;;;;;;;;;4.70;90.90;;;;;;2098312;28;19932;-91
2022/04/09 02:53:46;;;;;;;;;;;4.70;90.80;;;;;;2097006;28;19916;-93
2022/04/09 02:55:07;;;;;;;;;;;4.60;90.80;;;;;;2097851;28;19901;-94
2022/04/09 02:56:26;;;;;;;;;;;4.60;90.80;;;;;;2106194;28;19920;-91
2022/04/09 02:57:46;;;;;;;;;;;4.60;90.90;;;;;;2096161;28;19917;-92
2022/04/09 02:59:05;;;;;;;;;;;4.60;90.90;;;;;;2088751;28;20387;-93
2022/04/09 03:00:24;;;;;;;;;;;4.60;90.90;;;;;;2080737;28;20327;-94
2022/04/09 03:01:46;;;;;;;;;;;4.60;90.90;;;;;;2087775;28;19940;-93
2022/04/09 03:03:05;;;;;;;;;;;4.60;90.90;;;;;;2098743;28;19912;-93
2022/04/09 03:04:24;;;;;;;;;;;4.60;90.90;;;;;;2098400;28;19901;-90
2022/04/09 03:05:43;;;;;;;;;;;4.60;90.90;;;;;;2097902;28;19921;-84
2022/04/09 03:07:03;;;;;;;;;;;4.50;90.90;;;;;;2088089;28;20383;-95
2022/04/09 03:08:22;;;;;;;;;;;4.60;91.00;;;;;;2091327;28;19959;-92
2022/04/09 03:09:41;;;;;;;;;;;4.50;90.90;;;;;;2091314;28;19916;-92
2022/04/09 03:11:00;;;;;;;;;;;4.50;91.00;;;;;;2098975;28;19917;-94
2022/04/09 03:12:19;;;;;;;;;;;4.50;91.00;;;;;;2093728;28;20003;-94
2022/04/09 03:13:38;;;;;;;;;;;4.50;91.00;;;;;;2092424;28;19909;-94
2022/04/09 03:14:57;;;;;;;;;;;4.50;91.00;;;;;;2087544;28;19921;-94
2022/04/09 03:16:17;;;;;;;;;;;4.50;91.00;;;;;;2092066;28;19920;-93
2022/04/09 03:17:36;;;;;;;;;;;4.50;91.00;;;;;;2095919;28;19917;-94
2022/04/09 03:18:55;;;;;;;;;;;4.50;91.00;;;;;;2093169;28;20410;-93
2022/04/09 03:20:14;;;;;;;;;;;4.50;91.00;;;;;;2090843;28;20373;-94
2022/04/09 03:21:33;;;;;;;;;;;4.50;91.00;;;;;;2095307;28;19978;-94
2022/04/09 03:22:53;;;;;;;;;;;4.40;91.00;;;;;;2091959;28;19913;-95
2022/04/09 03:24:12;;;;;;;;;;;4.40;91.00;;;;;;2093404;28;19932;-93
2022/04/09 03:25:31;;;;;;;;;;;4.40;91.00;;;;;;2090461;28;19925;-93
2022/04/09 03:26:51;;;;;;;;;;;4.40;91.10;;;;;;2097755;28;19912;-93
2022/04/09 03:28:10;;;;;;;;;;;4.40;91.10;;;;;;2099340;28;19913;-93
2022/04/09 03:29:29;;;;;;;;;;;4.40;91.10;;;;;;2090532;28;20394;-93
2022/04/09 03:30:48;;;;;;;;;;;4.40;91.10;;;;;;2087540;28;19964;-93
2022/04/09 03:32:08;;;;;;;;;;;4.40;91.10;;;;;;2096192;28;19912;-94
2022/04/09 03:33:27;;;;;;;;;;;4.40;91.10;;;;;;2099441;28;19952;-93
2022/04/09 03:34:46;;;;;;;;;;;4.40;91.10;;;;;;2098278;28;19916;-93
2022/04/09 03:36:07;;;;;;;;;;;4.40;91.10;;;;;;2095737;28;19912;-94
2022/04/09 03:37:26;;;;;;;;;;;4.40;91.20;;;;;;2102928;28;20285;-93
2022/04/09 03:38:46;;;;;;;;;;;4.40;91.10;;;;;;2082381;28;19917;-94
2022/04/09 03:40:06;;;;;;;;;;;4.40;91.10;;;;;;2087384;28;19921;-93
2022/04/09 03:41:26;;;;;;;;;;;4.40;91.10;;;;;;2079681;28;19917;-93
2022/04/09 03:42:45;;;;;;;;;;;4.40;91.20;;;;;;2091432;28;19917;-94
2022/04/09 03:44:04;;;;;;;;;;;4.40;91.20;;;;;;2087219;28;19908;-92
2022/04/09 03:45:23;;;;;;;;;;;4.40;91.20;;;;;;2095843;28;19916;-93
2022/04/09 03:46:43;;;;;;;;;;;4.40;91.20;;;;;;2093432;28;19913;-94
2022/04/09 03:48:02;;;;;;;;;;;4.40;91.20;;;;;;2090472;28;19917;-94
2022/04/09 03:49:21;;;;;;;;;;;4.30;91.10;;;;;;2087136;28;19909;-95
2022/04/09 03:50:40;;;;;;;;;;;4.30;91.10;;;;;;2097335;28;19916;-94
2022/04/09 03:51:59;;;;;;;;;;;4.30;91.20;;;;;;2089010;28;19917;-93
2022/04/09 03:53:22;;;;;;;;;;;4.40;91.20;;;;;;2092320;28;19912;-94
2022/04/09 03:54:41;;;;;;;;;;;4.30;91.20;;;;;;2102315;28;19916;-92
2022/04/09 03:56:00;;;;;;;;;;;4.30;91.20;;;;;;2095602;28;19925;-94
2022/04/09 03:57:20;;;;;;;;;;;4.30;91.20;;;;;;2103309;28;19909;-94
2022/04/09 03:58:39;;;;;;;;;;;4.30;91.20;;;;;;2105450;28;19916;-93
2022/04/09 03:59:58;;;;;;;;;;;4.30;91.20;;;;;;2099459;28;19921;-93
2022/04/09 04:01:17;;;;;;;;;;;4.30;91.30;;;;;;2099273;28;19929;-93
2022/04/09 04:02:36;;;;;;;;;;;4.30;91.30;;;;;;2097300;28;19948;-94
2022/04/09 04:03:57;;;;;;;;;;;4.30;91.30;;;;;;2104233;28;19908;-94
2022/04/09 04:05:17;;;;;;;;;;;4.30;91.30;;;;;;2106567;28;19916;-93
2022/04/09 04:06:36;;;;;;;;;;;4.30;91.30;;;;;;2090400;28;19913;-94
2022/04/09 04:07:55;;;;;;;;;;;4.30;91.30;;;;;;2102783;28;19963;-94
2022/04/09 04:09:16;;;;;;;;;;;4.30;91.30;;;;;;2107544;28;19912;-94
2022/04/09 04:10:37;;;;;;;;;;;4.30;91.30;;;;;;2090156;28;19920;-93
2022/04/09 04:11:56;;;;;;;;;;;4.20;91.20;;;;;;2083184;28;19917;-94
2022/04/09 04:13:16;;;;;;;;;;;4.20;91.20;;;;;;2079180;28;19992;-93
2022/04/09 04:14:35;;;;;;;;;;;4.30;91.30;;;;;;2089839;28;19964;-92
2022/04/09 04:15:55;;;;;;;;;;;4.20;91.20;;;;;;2088174;28;19925;-93
2022/04/09 04:17:14;;;;;;;;;;;4.20;91.30;;;;;;2085293;28;20355;-94
2022/04/09 04:18:33;;;;;;;;;;;4.20;91.30;;;;;;2078871;28;20314;-92
2022/04/09 04:19:53;;;;;;;;;;;4.20;91.30;;;;;;2082516;28;19956;-92
2022/04/09 04:21:12;;;;;;;;;;;4.20;91.30;;;;;;2091562;28;19950;-93
2022/04/09 04:22:31;;;;;;;;;;;4.20;91.40;;;;;;2095929;28;19920;-93
2022/04/09 04:23:50;;;;;;;;;;;4.30;91.30;;;;;;2093460;28;20330;-94
2022/04/09 04:25:10;;;;;;;;;;;4.30;91.30;;;;;;2093121;28;20019;-94
2022/04/09 04:26:29;;;;;;;;;;;4.30;91.30;;;;;;2092403;28;20015;-93
2022/04/09 04:27:51;;;;;;;;;;;4.30;91.30;;;;;;2097768;28;20012;-93
2022/04/09 04:29:10;;;;;;;;;;;4.30;91.30;;;;;;2104906;28;19908;-92
2022/04/09 04:30:30;;;;;;;;;;;4.30;91.30;;;;;;2099264;28;19913;-94
2022/04/09 04:31:49;;;;;;;;;;;4.30;91.30;;;;;;2099041;28;20317;-92
2022/04/09 04:33:09;;;;;;;;;;;4.40;91.30;;;;;;2107486;28;20386;-93
2022/04/09 04:34:28;;;;;;;;;;;4.40;91.30;;;;;;2100836;28;19916;-94
2022/04/09 04:35:47;;;;;;;;;;;4.40;91.30;;;;;;2105776;28;19951;-93
2022/04/09 04:37:06;;;;;;;;;;;4.40;91.20;;;;;;2090633;28;19917;-92
2022/04/09 04:38:27;;;;;;;;;;;4.40;91.30;;;;;;2083882;28;19913;-93
2022/04/09 04:39:46;;;;;;;;;;;4.40;91.20;;;;;;2091596;28;19909;-94
2022/04/09 04:41:06;;;;;;;;;;;4.40;91.20;;;;;;2087847;28;19925;-92
2022/04/09 04:42:25;;;;;;;;;;;4.40;91.20;;;;;;2092568;28;19917;-94
2022/04/09 04:43:49;;;;;;;;;;;4.40;91.20;;;;;;2105915;28;20061;-94
2022/04/09 04:45:10;;;;;;;;;;;4.40;91.30;;;;;;2115257;28;19904;-93
2022/04/09 04:46:29;;;;;;;;;;;4.40;91.30;;;;;;2108497;28;19959;-84
2022/04/09 04:47:49;;;;;;;;;;;4.50;91.30;;;;;;2103568;28;19916;-94
2022/04/09 04:49:08;;;;;;;;;;;4.40;91.30;;;;;;2101465;28;19917;-94
2022/04/09 04:50:27;;;;;;;;;;;4.40;91.30;;;;;;2098658;28;19897;-91
2022/04/09 04:51:46;;;;;;;;;;;4.50;91.30;;;;;;2097568;28;20007;-94
2022/04/09 04:53:05;;;;;;;;;;;4.50;91.30;;;;;;2089373;28;19917;-94
2022/04/09 04:54:24;;;;;;;;;;;4.50;91.30;;;;;;2099826;28;19913;-92
2022/04/09 04:55:43;;;;;;;;;;;4.50;91.30;;;;;;2099280;28;19901;-85
2022/04/09 04:57:03;;;;;;;;;;;4.50;91.30;;;;;;2089078;28;19902;-87
2022/04/09 04:58:24;;;;;;;;;;;4.50;91.30;;;;;;2098838;28;19900;-84
2022/04/09 04:59:43;;;;;;;;;;;4.50;91.30;;;;;;2101576;28;19916;-84
2022/04/09 05:01:03;;;;;;;;;;;4.50;91.20;;;;;;2101189;28;20369;-94
2022/04/09 05:02:22;;;;;;;;;;;4.50;91.20;;;;;;2098987;28;20378;-93
2022/04/09 05:03:41;;;;;;;;;;;4.50;91.20;;;;;;2092119;28;19917;-93
2022/04/09 05:05:03;;;;;;;;;;;4.50;91.10;;;;;;2080467;28;19953;-93
2022/04/09 05:06:23;;;;;;;;;;;4.60;91.10;;;;;;2083390;28;19921;-94
2022/04/09 05:07:43;;;;;;;;;;;4.60;91.10;;;;;;2085664;28;19960;-93
2022/04/09 05:09:02;;;;;;;;;;;4.60;91.10;;;;;;2085735;28;19909;-94
2022/04/09 05:10:23;;;;;;;;;;;4.60;91.10;;;;;;2097027;28;19913;-92
2022/04/09 05:11:43;;;;;;;;;;;4.60;91.10;;;;;;2108371;28;20350;-93
2022/04/09 05:13:02;;;;;;;;;;;4.60;91.10;;;;;;2096426;28;19917;-93
2022/04/09 05:14:21;;;;;;;;;;;4.60;91.10;;;;;;2097049;28;19956;-93
2022/04/09 05:15:40;;;;;;;;;;;4.60;91.10;;;;;;2099962;28;19917;-93
2022/04/09 05:16:59;;;;;;;;;;;4.60;91.10;;;;;;2087715;28;19921;-94
2022/04/09 05:18:19;;;;;;;;;;;4.70;91.10;;;;;;2079831;28;19917;-93
2022/04/09 05:19:38;;;;;;;;;;;4.60;91.10;;;;;;2092755;28;19955;-94
2022/04/09 05:20:57;;;;;;;;;;;4.60;91.10;;;;;;2088255;28;19933;-93
2022/04/09 05:22:17;;;;;;;;;;;4.60;91.10;;;;;;2102228;28;19920;-94
2022/04/09 05:23:36;;;;;;;;;;;4.60;91.10;;;;;;2092676;28;19913;-93
2022/04/09 05:24:56;;;;;;;;;;;4.60;91.10;;;;;;2101762;28;20386;-93
2022/04/09 05:26:15;;;;;;;;;;;4.60;91.20;;;;;;2099820;28;19917;-93
2022/04/09 05:27:35;;;;;;;;;;;4.60;91.20;;;;;;2101031;28;20270;-93
2022/04/09 05:28:54;;;;;;;;;;;4.60;91.20;;;;;;2099747;28;19912;-93
2022/04/09 05:30:14;;;;;;;;;;;4.60;91.20;;;;;;2091488;28;20383;-92
2022/04/09 05:31:33;;;;;;;;;;;4.60;91.20;;;;;;2093854;28;19960;-94
2022/04/09 05:32:52;;;;;;;;;;;4.60;91.20;;;;;;2096725;28;20343;-93
2022/04/09 05:34:11;;;;;;;;;;;4.60;91.20;;;;;;2105598;28;19916;-93
2022/04/09 05:35:30;;;;;;;;;;;4.60;91.20;;;;;;2100321;28;19956;-93
2022/04/09 05:36:49;;;;;;;;;;;4.60;91.20;;;;;;2100795;28;19921;-93
2022/04/09 05:38:09;;;;;;;;;;;4.60;91.20;;;;;;2107866;28;20392;-93
2022/04/09 05:39:28;;;;;;;;;;;4.70;91.20;;;;;;2083734;28;19917;-94
2022/04/09 05:40:47;;;;;;;;;;;4.70;91.20;;;;;;2101116;28;20365;-93
2022/04/09 05:42:07;;;;;;;;;;;4.70;91.10;;;;;;2084898;28;19917;-94
2022/04/09 05:43:26;;;;;;;;;;;4.70;91.10;;;;;;2098795;28;19940;-93
2022/04/09 05:44:45;;;;;;;;;;;4.70;91.10;;;;;;2086027;28;19917;-93
2022/04/09 05:46:04;;;;;;;;;;;4.70;91.10;;;;;;2082940;28;19921;-93
2022/04/09 05:47:24;;;;;;;;;;;4.70;91.10;;;;;;2090713;28;19917;-93
2022/04/09 05:48:44;;;;;;;;;;;4.70;91.20;;;;;;2080238;28;19917;-93
2022/04/09 05:50:04;;;;;;;;;;;4.70;91.20;;;;;;2079366;28;20008;-93
2022/04/09 05:51:24;;;;;;;;;;;4.70;91.20;;;;;;2085442;28;19921;-93
2022/04/09 05:52:43;;;;;;;;;;;4.70;91.20;;;;;;2093560;28;19920;-93
2022/04/09 05:54:03;;;;;;;;;;;4.70;91.20;;;;;;2095865;28;19983;-93
2022/04/09 05:55:23;;;;;;;;;;;4.70;91.20;;;;;;2086967;28;19917;-94
2022/04/09 05:56:42;;;;;;;;;;;4.60;91.20;;;;;;2085886;28;19917;-93
2022/04/09 05:58:01;;;;;;;;;;;4.70;91.20;;;;;;2086556;28;19988;-95
2022/04/09 05:59:20;;;;;;;;;;;4.70;91.20;;;;;;2094230;28;20355;-94
2022/04/09 06:00:40;;;;;;;;;;;4.70;91.20;;;;;;2088786;28;19925;-96
2022/04/09 06:01:59;;;;;;;;;;;4.80;91.20;;;;;;2096997;28;19917;-96
2022/04/09 06:03:20;;;;;;;;;;;4.80;91.20;;;;;;2086274;28;20004;-95
2022/04/09 06:04:39;;;;;;;;;;;4.80;91.10;;;;;;2083250;28;19918;-91
2022/04/09 06:05:59;;;;;;;;;;;4.90;91.10;;;;;;2096643;28;20003;-93
2022/04/09 06:07:18;;;;;;;;;;;4.90;91.00;;;;;;2100702;28;20003;-93
2022/04/09 06:08:37;;;;;;;;;;;5.00;91.00;;;;;;2101610;28;19916;-94
2022/04/09 06:09:57;;;;;;;;;;;5.00;91.00;;;;;;2093587;28;19909;-93
2022/04/09 06:11:16;;;;;;;;;;;5.00;90.90;;;;;;2090360;28;19937;-93
2022/04/09 06:12:36;;;;;;;;;;;5.10;90.90;;;;;;2090660;28;20007;-89
2022/04/09 06:13:55;;;;;;;;;;;5.20;90.90;;;;;;2080071;28;19961;-91
2022/04/09 06:15:14;;;;;;;;;;;5.20;90.80;;;;;;2091395;28;19921;-92
2022/04/09 06:16:35;;;;;;;;;;;5.30;90.90;;;;;;2098464;28;20015;-93
2022/04/09 06:17:55;;;;;;;;;;;5.40;90.70;;;;;;2107454;28;19912;-92
2022/04/09 06:19:14;;;;;;;;;;;5.50;90.60;;;;;;2099104;28;20379;-92
2022/04/09 06:20:34;;;;;;;;;;;5.50;90.60;;;;;;2097210;28;20113;-92
2022/04/09 06:21:53;;;;;;;;;;;5.60;90.50;;;;;;2106616;28;19916;-91
2022/04/09 06:23:12;;;;;;;;;;;5.70;90.60;;;;;;2100009;28;19932;-92
2022/04/09 06:24:31;;;;;;;;;;;5.70;90.50;;;;;;2095408;28;19921;-92
2022/04/09 06:25:51;;;;;;;;;;;5.70;90.50;;;;;;2098915;28;19916;-92
2022/04/09 06:27:12;;;;;;;;;;;5.80;90.50;;;;;;2091741;28;19917;-93
2022/04/09 06:28:33;;;;;;;;;;;5.80;90.50;;;;;;2081137;28;19917;-92
2022/04/09 06:29:53;;;;;;;;;;;5.80;90.50;;;;;;2080478;28;20003;-88
2022/04/09 06:31:12;;;;;;;;;;;5.80;90.50;;;;;;2084912;28;19917;-92
2022/04/09 06:32:31;;;;;;;;;;;5.80;90.50;;;;;;2096360;28;19917;-91
2022/04/09 06:33:50;;;;;;;;;;;5.80;90.60;;;;;;2091101;28;19916;-92
2022/04/09 06:35:10;;;;;;;;;;;5.80;90.50;;;;;;2100509;28;19916;-91
2022/04/09 06:36:29;;;;;;;;;;;5.70;90.60;;;;;;2105281;28;19916;-92
2022/04/09 06:37:48;;;;;;;;;;;5.70;90.60;;;;;;2098115;28;19917;-91
2022/04/09 06:39:07;;;;;;;;;;;5.70;90.60;;;;;;2102826;28;19913;-84
2022/04/09 06:40:28;;;;;;;;;;;5.70;90.60;;;;;;2113770;28;19908;-91
2022/04/09 06:41:48;;;;;;;;;;;5.70;90.60;;;;;;2108693;28;19908;-91
2022/04/09 06:43:08;;;;;;;;;;;5.70;90.60;;;;;;2101205;28;19913;-90
2022/04/09 06:44:27;;;;;;;;;;;5.80;90.70;;;;;;2109879;28;19920;-80
2022/04/09 06:45:46;;;;;;;;;;;5.80;90.70;;;;;;2107139;28;20366;-91
2022/04/09 06:47:08;;;;;;;;;;;5.80;90.60;;;;;;2099703;28;19920;-91
2022/04/09 06:48:27;;;;;;;;;;;5.80;90.60;;;;;;2099911;28;19917;-92
2022/04/09 06:49:46;;;;;;;;;;;5.90;90.60;;;;;;2094255;28;19917;-91
2022/04/09 06:51:06;;;;;;;;;;;5.90;90.60;;;;;;2087464;28;19913;-91
2022/04/09 06:52:25;;;;;;;;;;;5.90;90.60;;;;;;2091772;28;19956;-80
2022/04/09 06:53:45;;;;;;;;;;;5.90;90.60;;;;;;2097882;28;19897;-89
2022/04/09 06:55:04;;;;;;;;;;;6.00;90.60;;;;;;2091111;28;19913;-92
2022/04/09 06:56:23;;;;;;;;;;;6.00;90.60;;;;;;2088633;28;19912;-91
2022/04/09 06:57:43;;;;;;;;;;;6.00;90.60;;;;;;2089925;28;19960;-92
2022/04/09 06:59:03;;;;;;;;;;;6.00;90.60;;;;;;2095965;28;19912;-92
2022/04/09 07:00:22;;;;;;;;;;;6.00;90.60;;;;;;2104385;28;19950;-90
2022/04/09 07:01:41;;;;;;;;;;;6.00;90.60;;;;;;2091091;28;19917;-91
2022/04/09 07:03:00;;;;;;;;;;;6.00;90.60;;;;;;2096077;28;19925;-92
2022/04/09 07:04:19;;;;;;;;;;;6.10;90.60;;;;;;2106510;28;19912;-89
2022/04/09 07:05:39;;;;;;;;;;;6.20;90.60;;;;;;2108267;28;19908;-93
2022/04/09 07:06:58;;;;;;;;;;;6.20;90.60;;;;;;2086313;28;19976;-94
2022/04/09 07:08:17;;;;;;;;;;;6.20;90.50;;;;;;2084473;28;20398;-87
2022/04/09 07:09:36;;;;;;;;;;;6.30;90.50;;;;;;2096696;28;19912;-95
2022/04/09 07:10:56;;;;;;;;;;;6.30;90.50;;;;;;2099839;28;20265;-93
2022/04/09 07:12:15;;;;;;;;;;;6.30;90.50;;;;;;2097694;28;20156;-95
2022/04/09 07:13:35;;;;;;;;;;;6.30;90.50;;;;;;2103676;28;20265;-93
2022/04/09 07:14:54;;;;;;;;;;;6.30;90.50;;;;;;2095825;28;19916;-92
2022/04/09 07:16:13;;;;;;;;;;;6.30;90.50;;;;;;2090339;28;20302;-92
2022/04/09 07:17:33;;;;;;;;;;;6.30;90.50;;;;;;2092119;28;19925;-92
2022/04/09 07:18:52;;;;;;;;;;;6.30;90.50;;;;;;2098831;28;20003;-91
2022/04/09 07:20:11;;;;;;;;;;;6.30;90.50;;;;;;2101138;28;19917;-92
2022/04/09 07:21:30;;;;;;;;;;;6.40;90.60;;;;;;2102513;28;19959;-94
2022/04/09 07:22:50;;;;;;;;;;;6.40;90.50;;;;;;2099436;28;19916;-91
2022/04/09 07:24:09;;;;;;;;;;;6.40;90.50;;;;;;2083682;28;19917;-93
2022/04/09 07:25:32;;;;;;;;;;;6.50;90.50;;;;;;2094782;28;19916;-92
2022/04/09 07:26:52;;;;;;;;;;;6.50;90.50;;;;;;2094256;28;19916;-92
2022/04/09 07:28:11;;;;;;;;;;;6.50;90.50;;;;;;2099942;28;19912;-92
2022/04/09 07:29:30;;;;;;;;;;;6.60;90.40;;;;;;2103176;28;19916;-92
2022/04/09 07:30:49;;;;;;;;;;;6.60;90.40;;;;;;2103390;28;20007;-92
2022/04/09 07:32:09;;;;;;;;;;;6.70;90.40;;;;;;2099865;28;19916;-94
2022/04/09 07:33:28;;;;;;;;;;;6.80;90.30;;;;;;2098398;28;20018;-93
2022/04/09 07:34:47;;;;;;;;;;;6.90;90.20;;;;;;2099520;28;19920;-95
2022/04/09 07:36:06;;;;;;;;;;;7.00;90.10;;;;;;2093886;28;19917;-94
2022/04/09 07:37:25;;;;;;;;;;;7.10;89.50;;;;;;2082678;28;19948;-94
2022/04/09 07:38:45;;;;;;;;;;;7.10;89.70;;;;;;2089944;28;19909;-96
2022/04/09 07:40:04;;;;;;;;;;;7.10;89.80;;;;;;2096203;28;20418;-94
2022/04/09 07:41:23;;;;;;;;;;;7.00;89.70;;;;;;2090621;28;20310;-96
2022/04/09 07:42:44;;;;;;;;;;;7.00;89.80;;;;;;2100561;28;19912;-91
2022/04/09 07:44:03;;;;;;;;;;;7.00;89.90;;;;;;2090052;28;19925;-94
2022/04/09 07:45:23;;;;;;;;;;;6.90;89.90;;;;;;2085519;28;20011;-93
2022/04/09 07:46:42;;;;;;;;;;;6.90;90.00;;;;;;2098824;28;19916;-95
2022/04/09 07:48:02;;;;;;;;;;;6.80;90.10;;;;;;2096007;28;19917;-95
2022/04/09 07:49:21;;;;;;;;;;;6.80;90.20;;;;;;2096651;28;19917;-94
2022/04/09 07:50:40;;;;;;;;;;;6.70;90.20;;;;;;2090337;28;19913;-95
2022/04/09 07:51:59;;;;;;;;;;;6.70;90.30;;;;;;2083548;28;19918;-93